Time;durP1;ratioP1;P1;durP2;ratioP2;P2;SDS_P1;SDS_P2;PMS_P1;PMS_P2;Temp;Humidity;BMP_temperature;BMP_pressure;BME280_temperature;BME280_humidity;BME280_pressure;Samples;Min_cycle;Max_cycle;Signal;HPM_P1;HPM_P2
2021/05/26 00:01:09;;;;;;;5.30;2.90;;;;;;;8.04;77.34;98629.37;125792;1097;27157;-77
2021/05/26 00:03:51;;;;;;;7.33;3.10;;;;;;;7.99;77.00;98639.02;125779;1104;22750;-77
2021/05/26 00:06:19;;;;;;;7.30;3.20;;;;;;;7.99;77.32;98635.48;125760;1104;22771;-77
2021/05/26 00:08:47;;;;;;;6.40;3.10;;;;;;;7.97;76.48;98632.17;125775;1104;22751;-77
2021/05/26 00:11:17;;;;;;;5.90;3.45;;;;;;;7.97;77.12;98640.30;125872;1104;22821;-77
2021/05/26 00:13:47;;;;;;;8.20;3.75;;;;;;;7.94;76.71;98643.45;125848;1096;27161;-77
2021/05/26 00:16:17;;;;;;;7.73;3.20;;;;;;;7.92;77.14;98642.86;125822;1104;22739;-77
2021/05/26 00:18:59;;;;;;;7.05;3.30;;;;;;;7.88;76.88;98642.47;125787;1104;22836;-77
2021/05/26 00:21:26;;;;;;;6.85;3.20;;;;;;;7.87;76.92;98639.98;125765;1096;26661;-77
2021/05/26 00:23:54;;;;;;;8.60;3.30;;;;;;;7.86;77.13;98650.01;125775;1097;26223;-77
2021/05/26 00:26:21;;;;;;;11.37;3.70;;;;;;;7.84;76.90;98638.53;125859;1104;22785;-77
2021/05/26 00:28:50;;;;;;;4.33;3.07;;;;;;;7.85;76.85;98647.52;125747;1096;26216;-77
2021/05/26 00:31:23;;;;;;;6.28;3.05;;;;;;;7.82;76.89;98664.22;125810;1104;22771;-77
2021/05/26 00:33:51;;;;;;;5.67;2.50;;;;;;;7.78;76.87;98651.09;125795;1096;26340;-77
2021/05/26 00:36:20;;;;;;;5.05;2.80;;;;;;;7.77;77.08;98657.59;125801;1104;22747;-77
2021/05/26 00:38:48;;;;;;;5.10;3.00;;;;;;;7.76;77.43;98660.52;125788;1097;26223;-77
2021/05/26 00:41:16;;;;;;;6.03;2.80;;;;;;;7.76;77.29;98655.92;125825;1097;24565;-77
2021/05/26 00:43:44;;;;;;;6.75;3.30;;;;;;;7.76;76.57;98666.76;125813;1104;22774;-77
2021/05/26 00:46:12;;;;;;;9.17;2.97;;;;;;;7.74;77.06;98657.20;125734;1104;22771;-77
2021/05/26 00:48:40;;;;;;;6.20;2.83;;;;;;;7.72;77.48;98662.84;125754;1104;22751;-77
2021/05/26 00:51:08;;;;;;;5.97;2.57;;;;;;;7.69;77.31;98662.45;125749;1097;27145;-77
2021/05/26 00:53:35;;;;;;;6.10;2.97;;;;;;;7.67;76.87;98656.44;125807;1104;22724;-77
2021/05/26 00:56:05;;;;;;;6.53;2.78;;;;;;;7.67;77.42;98665.38;125792;1097;22826;-77
2021/05/26 00:58:34;;;;;;;7.13;3.10;;;;;;;7.67;77.30;98669.98;125836;1104;22748;-77
2021/05/26 01:01:02;;;;;;;5.65;3.03;;;;;;;7.65;77.40;98674.77;125896;1097;25989;-77
2021/05/26 01:03:32;;;;;;;6.47;3.00;;;;;;;7.64;77.91;98675.84;125814;1104;22790;-77
2021/05/26 01:05:59;;;;;;;;;;;;;;;7.58;77.71;98667.53;126304;1101;22750;-77
2021/05/26 01:08:27;;;;;;;6.07;2.63;;;;;;;7.57;77.64;98681.30;126051;1096;21522;-77
2021/05/26 01:10:56;;;;;;;7.15;2.83;;;;;;;7.58;77.76;98669.42;126026;1104;22868;-77
2021/05/26 01:13:28;;;;;;;5.40;2.70;;;;;;;7.57;78.32;98676.70;125889;1101;22771;-77
2021/05/26 01:15:56;;;;;;;6.65;3.15;;;;;;;7.57;78.04;98681.30;126356;1101;22747;-77
2021/05/26 01:18:31;;;;;;;4.90;2.80;;;;;;;7.55;78.10;98684.23;126277;1101;22764;-77
2021/05/26 01:21:28;;;;;;;5.50;2.57;;;;;;;7.54;78.17;98687.16;125918;1101;22777;-77
2021/05/26 01:23:56;;;;;;;4.25;2.40;;;;;;;7.52;77.48;98683.84;126189;1101;23523;-77
2021/05/26 01:26:47;;;;;;;5.40;2.80;;;;;;;7.49;77.49;98682.41;125943;1104;22777;-77
2021/05/26 01:29:28;;;;;;;5.20;2.60;;;;;;;7.49;77.87;98684.27;126152;1096;22744;-77
2021/05/26 01:31:57;;;;;;;6.47;2.97;;;;;;;7.46;77.39;98680.13;126053;1101;22848;-77
2021/05/26 01:34:26;;;;;;;6.00;2.68;;;;;;;7.43;77.79;98687.88;126322;1101;22753;-77
2021/05/26 01:36:53;;;;;;;5.73;2.90;;;;;;;7.35;77.96;98687.09;125910;1096;27122;-77
2021/05/26 01:39:35;;;;;;;6.50;2.90;;;;;;;7.26;78.10;98693.81;125998;1096;27311;-77
2021/05/26 01:42:05;;;;;;;7.30;3.50;;;;;;;7.19;78.07;98693.85;126270;1101;24456;-77
2021/05/26 01:44:35;;;;;;;4.75;2.60;;;;;;;7.12;78.52;98695.77;125933;1096;22974;-77
2021/05/26 01:47:15;;;;;;;4.93;2.60;;;;;;;7.04;78.29;98694.13;126027;1101;22812;-77
2021/05/26 01:49:56;;;;;;;5.07;2.60;;;;;;;6.98;79.01;98700.42;126206;1101;22813;-77
2021/05/26 01:52:24;;;;;;;6.10;2.80;;;;;;;6.92;79.20;98695.84;126210;1096;25912;-77
2021/05/26 01:54:52;;;;;;;7.07;3.00;;;;;;;6.86;79.33;98690.48;125959;1096;27123;-77
2021/05/26 01:57:20;;;;;;;7.10;2.80;;;;;;;6.86;80.12;98695.91;125990;1096;22809;-77
2021/05/26 01:59:48;;;;;;;5.60;2.70;;;;;;;6.81;79.98;98700.06;126231;1101;22743;-77
2021/05/26 02:02:20;;;;;;;6.90;2.70;;;;;;;6.78;79.83;98702.37;125993;1096;25906;-77
2021/05/26 02:05:01;;;;;;;7.15;3.20;;;;;;;6.75;80.40;98702.82;125969;1101;22744;-77
2021/05/26 02:07:44;;;;;;;10.20;3.20;;;;;;;6.73;80.26;98696.77;126159;1096;26248;-77
2021/05/26 02:10:16;;;;;;;9.37;3.03;;;;;;;6.73;80.39;98697.62;126251;1101;22767;-77
2021/05/26 02:12:45;;;;;;;7.70;3.25;;;;;;;6.76;80.13;98701.75;126126;1096;22751;-77
2021/05/26 02:15:15;;;;;;;3.58;2.58;;;;;;;6.72;80.34;98705.95;126338;1101;22771;-77
2021/05/26 02:17:43;;;;;;;8.97;3.40;;;;;;;6.69;80.59;98709.08;126197;1101;24135;-77
2021/05/26 02:20:12;;;;;;;4.77;2.13;;;;;;;6.64;80.07;98713.26;126175;1101;22736;-77
2021/05/26 02:22:40;;;;;;;;;;;;;;;6.63;80.47;98708.88;126289;1101;22757;-77
2021/05/26 02:25:22;;;;;;;5.75;2.10;;;;;;;6.63;80.74;98706.17;125925;1101;21468;-77
2021/05/26 02:27:50;;;;;;;7.20;2.80;;;;;;;6.64;80.55;98707.84;125898;1096;25938;-77
2021/05/26 02:30:23;;;;;;;3.90;2.30;;;;;;;6.64;80.45;98715.97;125977;1101;22765;-77
2021/05/26 02:32:52;;;;;;;9.10;2.38;;;;;;;6.62;81.05;98717.20;126359;1101;22757;-77
2021/05/26 02:35:19;;;;;;;6.40;2.87;;;;;;;6.60;81.53;98720.13;126207;1096;26314;-77
2021/05/26 02:37:47;;;;;;;4.45;2.40;;;;;;;6.59;81.37;98728.48;126308;1101;22868;-77
2021/05/26 02:40:15;;;;;;;2.87;2.20;;;;;;;6.60;81.44;98725.53;125988;1102;22787;-77
2021/05/26 02:42:42;;;;;;;4.73;2.00;;;;;;;6.60;81.63;98732.83;126002;1101;22764;-77
2021/05/26 02:45:17;;;;;;;6.45;2.10;;;;;;;6.58;81.36;98726.80;126097;1102;22729;-77
2021/05/26 02:47:45;;;;;;;6.65;2.00;;;;;;;6.54;81.45;98720.16;125918;1096;22841;-77
2021/05/26 02:50:27;;;;;;;3.90;2.07;;;;;;;6.52;81.64;98723.08;125932;1097;26270;-77
2021/05/26 02:52:54;;;;;;;5.37;2.10;;;;;;;6.54;81.68;98725.58;126297;1096;27160;-77
2021/05/26 02:55:37;;;;;;;2.60;2.20;;;;;;;6.51;81.53;98724.11;126035;1096;26333;-77
2021/05/26 02:58:40;;;;;;;9.07;2.70;;;;;;;6.53;81.88;98726.61;125949;1097;26251;-77
2021/05/26 03:01:40;;;;;;;4.43;2.13;;;;;;;6.56;81.81;98723.48;126223;1101;22882;-77
2021/05/26 03:04:34;;;;;;;4.57;3.03;;;;;;;6.55;82.09;98725.36;126141;1101;22744;-77
2021/05/26 03:07:03;;;;;;;6.15;2.10;;;;;;;6.56;81.69;98727.01;126255;1101;22821;-77
2021/05/26 03:09:45;;;;;;;5.00;2.45;;;;;;;6.58;81.39;98713.27;126040;1096;22811;-77
2021/05/26 03:12:13;;;;;;;8.53;3.37;;;;;;;6.61;81.49;98720.97;126194;1102;24134;-77
2021/05/26 03:14:54;;;;;;;5.53;2.90;;;;;;;6.63;81.47;98719.70;126281;1101;24598;-77
2021/05/26 03:17:27;;;;;;;4.00;2.23;;;;;;;6.68;81.49;98718.25;126441;1101;24383;-77
2021/05/26 03:19:55;;;;;;;3.97;2.00;;;;;;;6.71;81.04;98721.36;125951;1102;22764;-77
2021/05/26 03:22:43;;;;;;;3.45;2.00;;;;;;;6.73;81.06;98719.27;126139;1101;22747;-77
2021/05/26 03:25:30;;;;;;;3.27;1.80;;;;;;;6.74;80.65;98718.20;125959;1101;22784;-77
2021/05/26 03:28:05;;;;;;;3.03;1.70;;;;;;;6.77;80.59;98722.38;126183;1101;22954;-77
2021/05/26 03:30:34;;;;;;;4.13;1.67;;;;;;;6.78;80.62;98726.73;126010;1101;24428;-77
2021/05/26 03:33:04;;;;;;;4.90;1.80;;;;;;;6.80;80.85;98728.20;126316;1101;22753;-77
2021/05/26 03:35:33;;;;;;;5.10;2.50;;;;;;;6.83;80.38;98732.34;125979;1096;22832;-77
2021/05/26 03:38:15;;;;;;;4.30;2.50;;;;;;;6.82;80.08;98733.40;125952;1096;22825;-77
2021/05/26 03:40:53;;;;;;;4.33;2.63;;;;;;;6.81;80.31;98746.08;126036;1101;22775;-77
2021/05/26 03:43:23;;;;;;;4.00;2.10;;;;;;;6.81;80.18;98742.55;126118;1096;22837;-77
2021/05/26 03:45:52;;;;;;;6.37;2.50;;;;;;;6.82;80.38;98744.22;126065;1102;22765;-77
2021/05/26 03:48:20;;;;;;;6.73;2.87;;;;;;;6.84;80.32;98739.42;125946;1096;27293;-77
2021/05/26 03:50:48;;;;;;;8.50;2.60;;;;;;;6.89;80.01;98750.45;126013;1096;26248;-77
2021/05/26 03:53:15;;;;;;;8.05;4.10;;;;;;;6.87;79.55;98755.25;126173;1096;22750;-77
2021/05/26 03:55:45;;;;;;;;;;;;;;;6.78;79.52;98748.38;126216;1101;22771;-77
2021/05/26 03:58:45;;;;;;;6.87;3.60;;;;;;;6.65;79.92;98746.55;126178;1101;21468;-77
2021/05/26 04:01:36;;;;;;;5.75;3.45;;;;;;;6.60;80.31;98751.77;126046;1096;27295;-77
2021/05/26 04:04:04;;;;;;;7.98;4.00;;;;;;;6.61;80.55;98754.27;125874;1097;26194;-77
2021/05/26 04:06:35;;;;;;;8.45;3.90;;;;;;;6.64;80.55;98743.03;125948;1104;22761;-77
2021/05/26 04:09:04;;;;;;;6.27;4.27;;;;;;;6.70;80.82;98751.34;126032;1096;22761;-77
2021/05/26 04:11:34;;;;;;;7.03;3.90;;;;;;;6.75;80.73;98746.13;125900;1104;22747;-77
2021/05/26 04:14:20;;;;;;;7.25;3.20;;;;;;;6.86;80.79;98750.86;125864;1104;23395;-77
2021/05/26 04:17:06;;;;;;;4.30;2.10;;;;;;;6.98;80.76;98754.57;125919;1104;22765;-77
2021/05/26 04:20:02;;;;;;;5.55;2.40;;;;;;;7.10;80.21;98760.16;126012;1097;27144;-77
2021/05/26 04:22:34;;;;;;;5.45;2.30;;;;;;;7.18;79.75;98753.66;125953;1104;22787;-77
2021/05/26 04:25:04;;;;;;;4.33;2.90;;;;;;;7.26;79.82;98747.14;125905;1104;22768;-77
2021/05/26 04:27:47;;;;;;;2.45;1.80;;;;;;;7.33;79.49;98750.64;125964;1104;22847;-77
2021/05/26 04:30:16;;;;;;;3.77;1.77;;;;;;;7.41;78.86;98761.23;126127;1104;22729;-77
2021/05/26 04:32:45;;;;;;;4.38;2.20;;;;;;;7.47;79.13;98762.24;125954;1104;22766;-77
2021/05/26 04:35:15;;;;;;;5.13;1.95;;;;;;;7.56;78.51;98763.64;125982;1097;22851;-77
2021/05/26 04:37:42;;;;;;;2.63;1.83;;;;;;;7.65;79.17;98758.80;126083;1104;22737;-77
2021/05/26 04:40:11;;;;;;;6.15;2.25;;;;;;;7.70;78.87;98758.97;125869;1104;22756;-77
2021/05/26 04:42:38;;;;;;;3.57;2.30;;;;;;;7.75;78.05;98761.86;126181;1097;25868;-77
2021/05/26 04:45:07;;;;;;;5.43;2.47;;;;;;;7.82;78.01;98770.77;125991;1104;22791;-77
2021/05/26 04:47:35;;;;;;;6.97;2.17;;;;;;;7.85;77.87;98769.52;126037;1104;22747;-77
2021/05/26 04:50:03;;;;;;;8.87;2.27;;;;;;;7.91;77.74;98766.73;125914;1097;27160;-77
2021/05/26 04:52:31;;;;;;;4.00;2.00;;;;;;;7.97;77.75;98770.47;125848;1104;22816;-77
2021/05/26 04:54:58;;;;;;;4.00;2.00;;;;;;;8.06;77.77;98773.75;125865;1097;26241;-77
2021/05/26 04:57:26;;;;;;;4.40;1.90;;;;;;;8.11;77.23;98768.46;125864;1097;25828;-77
2021/05/26 04:59:54;;;;;;;3.95;1.80;;;;;;;8.17;77.35;98768.41;125779;1104;22917;-77
2021/05/26 05:02:35;;;;;;;7.00;2.03;;;;;;;8.23;77.69;98761.27;125828;1097;25973;-77
2021/05/26 05:05:03;;;;;;;2.90;1.40;;;;;;;8.32;77.35;98769.95;125797;1104;22761;-77
2021/05/26 05:07:31;;;;;;;3.30;1.55;;;;;;;8.40;77.08;98766.15;125776;1097;27138;-77
2021/05/26 05:09:58;;;;;;;5.23;1.60;;;;;;;8.49;77.24;98770.26;126030;1104;22838;-77
2021/05/26 05:12:26;;;;;;;5.43;2.37;;;;;;;8.58;77.43;98768.91;125930;1104;22738;-77
2021/05/26 05:14:53;;;;;;;3.70;1.70;;;;;;;8.67;76.76;98767.55;125948;1097;27148;-77
2021/05/26 05:17:21;;;;;;;5.15;1.50;;;;;;;8.73;77.02;98763.13;126069;1104;22769;-77
2021/05/26 05:19:49;;;;;;;4.93;2.60;;;;;;;8.83;76.49;98762.59;125966;1104;22762;-77
2021/05/26 05:22:17;;;;;;;2.90;1.10;;;;;;;8.88;76.42;98755.42;125960;1104;24424;-77
2021/05/26 05:24:45;;;;;;;2.75;1.10;;;;;;;8.98;76.41;98756.77;125917;1097;22974;-77
2021/05/26 05:27:12;;;;;;;3.67;1.50;;;;;;;9.08;73.88;98754.35;125840;1104;24421;-77
2021/05/26 05:29:54;;;;;;;3.40;1.35;;;;;;;9.17;73.85;98761.16;125873;1104;22974;-77
2021/05/26 05:32:36;;;;;;;1.50;0.80;;;;;;;9.27;73.71;98760.59;126013;1104;22919;-77
2021/05/26 05:35:05;;;;;;;2.97;0.97;;;;;;;9.36;73.18;98764.66;125930;1104;22822;-77
2021/05/26 05:37:32;;;;;;;2.08;1.03;;;;;;;9.44;72.73;98761.63;125985;1104;22747;-77
2021/05/26 05:40:00;;;;;;;2.35;1.00;;;;;;;9.53;72.18;98764.03;126072;1097;22800;-77
2021/05/26 05:42:28;;;;;;;2.60;1.30;;;;;;;9.58;71.85;98759.56;126032;1096;24454;-77
2021/05/26 05:44:56;;;;;;;2.43;1.13;;;;;;;9.69;71.81;98766.09;126155;1097;26241;-77
2021/05/26 05:47:23;;;;;;;2.30;1.00;;;;;;;9.78;71.33;98766.59;126001;1104;22853;-77
2021/05/26 05:49:51;;;;;;;2.77;1.00;;;;;;;9.88;71.35;98761.42;125953;1104;22753;-77
2021/05/26 05:52:18;;;;;;;2.80;1.30;;;;;;;10.00;71.92;98762.25;125888;1104;22784;-77
2021/05/26 05:54:46;;;;;;;2.90;1.40;;;;;;;10.14;71.67;98762.05;125861;1104;22818;-77
2021/05/26 05:57:14;;;;;;;8.03;1.90;;;;;;;10.24;71.30;98765.02;126060;1097;22887;-77
2021/05/26 06:00:06;;;;;;;4.80;1.65;;;;;;;10.36;70.17;98759.63;126575;1091;22572;-77
2021/05/26 06:02:42;;;;;;;4.13;1.60;;;;;;;10.48;69.50;98754.16;125936;1097;27377;-77
2021/05/26 06:05:13;;;;;;;3.98;1.65;;;;;;;10.56;69.61;98760.08;126280;1101;22919;-77
2021/05/26 06:07:40;;;;;;;3.85;1.50;;;;;;;10.67;68.94;98757.59;126296;1101;24836;-77
2021/05/26 06:10:09;;;;;;;3.80;1.30;;;;;;;10.74;67.79;98753.67;126146;1097;26257;-77
2021/05/26 06:12:37;;;;;;;4.70;1.38;;;;;;;10.82;68.51;98755.22;126144;1097;27284;-77
2021/05/26 06:15:05;;;;;;;5.05;1.50;;;;;;;10.91;67.39;98755.68;126196;1101;22761;-77
2021/05/26 06:17:33;;;;;;;7.80;1.53;;;;;;;10.97;67.30;98758.25;126205;1097;24438;-77
2021/05/26 06:20:00;;;;;;;4.57;1.37;;;;;;;11.05;67.13;98757.06;126554;1096;26204;-77
2021/05/26 06:22:28;;;;;;;2.90;1.43;;;;;;;11.13;66.41;98747.67;126008;1097;25864;-77
2021/05/26 06:24:57;;;;;;;2.20;1.05;;;;;;;11.19;65.33;98749.42;126531;1096;22866;-77
2021/05/26 06:27:24;;;;;;;3.80;1.20;;;;;;;11.27;65.76;98746.32;125940;1096;24415;-77
2021/05/26 06:29:52;;;;;;;4.15;1.40;;;;;;;11.35;65.09;98737.77;126059;1101;24419;-77
2021/05/26 06:32:20;;;;;;;5.90;1.50;;;;;;;11.44;64.43;98746.39;125975;1102;22818;-77
2021/05/26 06:34:50;;;;;;;2.73;1.40;;;;;;;11.53;64.14;98738.64;126122;1096;27151;-77
2021/05/26 06:37:17;;;;;;;3.65;1.10;;;;;;;11.62;63.97;98741.81;126113;1101;22755;-77
2021/05/26 06:39:45;;;;;;;2.80;1.45;;;;;;;11.70;64.22;98750.39;125829;1102;24376;-77
2021/05/26 06:42:13;;;;;;;4.05;1.35;;;;;;;11.78;62.81;98746.46;126085;1101;22740;-77
2021/05/26 06:44:40;;;;;;;3.25;1.10;;;;;;;11.87;62.88;98738.70;125796;1097;26293;-77
2021/05/26 06:47:22;;;;;;;1.90;1.20;;;;;;;11.98;63.05;98735.09;125853;1101;22745;-77
2021/05/26 06:49:49;;;;;;;2.25;0.85;;;;;;;12.10;62.38;98737.75;126015;1101;23191;-77
2021/05/26 06:52:17;;;;;;;2.07;1.20;;;;;;;12.21;62.38;98736.02;125847;1103;22744;-77
2021/05/26 06:54:44;;;;;;;3.15;0.80;;;;;;;12.30;61.34;98732.59;126106;1096;27161;-77
2021/05/26 06:57:12;;;;;;;2.25;1.15;;;;;;;12.40;60.69;98718.28;126093;1096;23482;-77
2021/05/26 06:59:40;;;;;;;2.60;1.30;;;;;;;12.50;60.41;98720.32;126047;1101;22809;-77
2021/05/26 07:02:08;;;;;;;3.90;1.00;;;;;;;12.60;60.95;98720.47;125805;1103;22802;-77
2021/05/26 07:04:35;;;;;;;4.10;0.90;;;;;;;12.70;60.31;98715.16;125877;1102;22745;-77
2021/05/26 07:07:03;;;;;;;2.15;0.90;;;;;;;12.80;58.92;98710.90;125795;1096;25958;-77
2021/05/26 07:09:31;;;;;;;0.80;0.60;;;;;;;12.88;58.29;98710.47;125793;1101;22897;-77
2021/05/26 07:11:58;;;;;;;1.65;0.50;;;;;;;13.01;57.67;98709.25;125848;1101;24412;-77
2021/05/26 07:14:26;;;;;;;2.10;0.80;;;;;;;13.11;57.50;98714.85;125809;1101;22823;-77
2021/05/26 07:16:54;;;;;;;0.90;0.50;;;;;;;13.22;54.16;98700.20;125819;1096;26050;-77
2021/05/26 07:19:22;;;;;;;1.20;0.60;;;;;;;13.35;53.09;98703.66;125900;1097;22812;-77
2021/05/26 07:21:49;;;;;;;2.70;0.70;;;;;;;13.45;52.21;98710.06;125864;1102;22819;-77
2021/05/26 07:24:18;;;;;;;6.30;1.20;;;;;;;13.60;52.72;98709.41;126183;1101;22735;-77
2021/05/26 07:27:00;;;;;;;2.25;0.50;;;;;;;13.77;52.35;98708.45;125842;1097;22903;-77
2021/05/26 07:29:27;;;;;;;2.05;0.50;;;;;;;13.92;51.91;98702.31;125875;1101;22775;-77
2021/05/26 07:31:55;;;;;;;2.47;0.67;;;;;;;14.04;51.22;98695.56;125840;1101;22758;-77
2021/05/26 07:34:22;;;;;;;3.80;0.65;;;;;;;14.16;50.96;98695.36;125829;1101;22740;-77
2021/05/26 07:36:54;;;;;;;2.30;0.40;;;;;;;14.30;50.53;98692.99;126061;1096;27147;-78
2021/05/26 07:39:24;;;;;;;2.10;0.60;;;;;;;14.43;50.02;98695.28;125822;1101;22745;-78
2021/05/26 07:41:51;;;;;;;3.45;0.60;;;;;;;14.59;50.06;98684.45;125825;1101;24440;-78
2021/05/26 07:44:19;;;;;;;1.90;0.60;;;;;;;14.75;50.18;98688.07;125869;1102;22745;-77
2021/05/26 07:46:47;;;;;;;2.70;0.60;;;;;;;14.88;48.22;98700.49;126099;1101;22825;-78
2021/05/26 07:49:14;;;;;;;1.75;0.55;;;;;;;14.89;45.78;98693.90;126113;1101;22747;-78
2021/05/26 07:51:49;;;;;;;6.50;0.70;;;;;;;14.89;47.05;98696.64;126121;1101;22758;-78
2021/05/26 07:54:16;;;;;;;1.50;0.60;;;;;;;14.88;46.01;98690.34;126067;1096;26407;-78
2021/05/26 07:56:45;;;;;;;1.60;0.60;;;;;;;14.89;45.08;98677.45;126245;1101;24418;-78
2021/05/26 07:59:13;;;;;;;1.15;0.50;;;;;;;14.89;44.97;98681.03;126149;1102;22910;-78
2021/05/26 08:01:42;;;;;;;3.83;0.77;;;;;;;14.95;46.78;98684.62;126088;1101;22747;-78
2021/05/26 08:04:10;;;;;;;4.45;0.75;;;;;;;15.07;46.58;98685.22;126059;1101;22758;-78
2021/05/26 08:06:39;;;;;;;3.30;0.73;;;;;;;15.19;46.82;98676.73;125956;1102;22827;-78
2021/05/26 08:09:06;;;;;;;2.10;0.70;;;;;;;15.29;46.54;98671.27;126271;1096;27116;-78
2021/05/26 08:11:34;;;;;;;3.37;0.80;;;;;;;15.39;46.34;98665.00;126192;1096;27635;-78
2021/05/26 08:14:15;;;;;;;2.35;0.70;;;;;;;15.43;46.15;98668.84;126267;1101;22758;-78
2021/05/26 08:16:46;;;;;;;1.30;0.53;;;;;;;15.45;45.09;98669.39;126224;1101;22737;-78
2021/05/26 08:19:13;;;;;;;3.90;0.60;;;;;;;15.46;43.07;98676.54;125928;1103;24303;-78
2021/05/26 08:21:44;;;;;;;1.55;0.30;;;;;;;15.46;42.70;98672.98;126232;1096;22767;-78
2021/05/26 08:24:12;;;;;;;1.67;0.40;;;;;;;15.47;42.55;98675.42;126229;1101;22873;-77
2021/05/26 08:26:39;;;;;;;1.50;0.50;;;;;;;15.59;42.60;98672.43;126229;1101;22778;-76
2021/05/26 08:29:11;;;;;;;2.57;0.60;;;;;;;15.72;42.81;98663.67;125971;1101;22820;-76
2021/05/26 08:31:40;;;;;;;1.10;0.50;;;;;;;15.86;42.15;98665.89;126096;1101;22761;-76
2021/05/26 08:34:08;;;;;;;2.88;0.78;;;;;;;16.05;42.86;98669.73;126202;1101;24443;-77
2021/05/26 08:36:36;;;;;;;1.20;0.60;;;;;;;16.25;41.50;98666.13;126166;1101;22788;-76
2021/05/26 08:39:06;;;;;;;1.90;1.05;;;;;;;16.41;41.68;98660.61;126026;1096;26238;-76
2021/05/26 08:41:34;;;;;;;3.33;0.67;;;;;;;16.55;41.79;98653.42;125796;1102;22737;-76
2021/05/26 08:44:05;;;;;;;2.83;0.60;;;;;;;16.66;39.54;98656.96;125792;1096;26239;-76
2021/05/26 08:46:36;;;;;;;3.70;0.70;;;;;;;16.73;39.03;98656.67;126045;1097;26211;-76
2021/05/26 08:49:20;;;;;;;1.00;0.50;;;;;;;16.83;41.67;98656.64;126053;1101;22758;-76
2021/05/26 08:52:03;;;;;;;2.70;0.75;;;;;;;16.96;40.78;98652.48;126038;1101;22861;-76
2021/05/26 08:54:31;;;;;;;3.80;0.50;;;;;;;17.00;40.35;98643.39;126106;1101;22745;-77
2021/05/26 08:56:59;;;;;;;2.18;0.58;;;;;;;17.07;40.15;98654.09;126075;1101;22791;-76
2021/05/26 08:59:26;;;;;;;2.00;0.73;;;;;;;17.17;40.31;98648.52;125820;1102;22744;-77
2021/05/26 09:02:14;;;;;;;3.50;0.75;;;;;;;17.27;40.66;98640.20;126103;1101;22910;-77
2021/05/26 09:04:42;;;;;;;4.10;0.60;;;;;;;17.44;41.00;98648.09;126146;1097;25864;-76
2021/05/26 09:07:14;;;;;;;2.75;0.70;;;;;;;17.60;38.77;98642.46;126183;1101;22826;-76
2021/05/26 09:09:59;;;;;;;1.90;0.68;;;;;;;17.73;40.41;98643.77;126038;1101;22907;-77
2021/05/26 09:12:29;;;;;;;3.33;0.60;;;;;;;17.89;40.19;98638.98;125874;1096;27151;-77
2021/05/26 09:15:22;;;;;;;2.95;0.73;;;;;;;18.03;38.88;98631.69;126116;1101;22889;-77
2021/05/26 09:17:58;;;;;;;2.43;1.10;;;;;;;18.15;39.46;98639.55;126107;1101;22764;-77
2021/05/26 09:20:32;;;;;;;1.38;0.50;;;;;;;18.28;38.42;98638.06;125831;1097;24724;-77
2021/05/26 09:23:22;;;;;;;1.03;0.70;;;;;;;18.38;37.41;98638.78;126024;1097;27122;-76
2021/05/26 09:26:06;;;;;;;2.93;1.50;;;;;;;18.47;35.86;98638.13;126066;1101;22740;-76
2021/05/26 09:28:36;;;;;;;2.00;0.90;;;;;;;18.58;35.77;98628.63;125896;1096;26264;-76
2021/05/26 09:31:09;;;;;;;1.93;0.40;;;;;;;18.78;35.97;98622.05;125840;1101;22737;-76
2021/05/26 09:33:44;;;;;;;2.05;0.60;;;;;;;18.87;36.00;98616.72;126090;1101;22740;-76
2021/05/26 09:36:13;;;;;;;1.63;0.50;;;;;;;18.71;35.49;98618.82;125885;1101;22761;-76
2021/05/26 09:39:00;;;;;;;2.23;1.38;;;;;;;18.70;35.24;98622.72;126086;1096;22758;-76
2021/05/26 09:41:37;;;;;;;38.40;29.20;;;;;;;18.55;35.65;98620.94;126089;1097;25865;-76
2021/05/26 09:44:10;;;;;;;14.88;10.35;;;;;;;18.54;36.68;98619.31;126045;1096;26293;-76
2021/05/26 09:46:43;;;;;;;2.73;1.50;;;;;;;18.67;36.46;98620.53;126070;1101;22744;-76
2021/05/26 09:49:16;;;;;;;3.10;0.90;;;;;;;18.67;35.23;98626.86;126058;1096;25954;-76
2021/05/26 09:51:58;;;;;;;1.90;0.58;;;;;;;18.72;35.14;98613.02;126082;1096;26203;-76
2021/05/26 09:54:28;;;;;;;5.27;1.00;;;;;;;18.76;32.79;98604.97;126322;1097;24422;-77
2021/05/26 09:57:02;;;;;;;10.70;5.75;;;;;;;18.69;31.63;98602.56;126223;1101;22771;-77
2021/05/26 09:59:34;;;;;;;5.23;1.15;;;;;;;18.63;33.37;98602.91;125973;1096;22823;-76
2021/05/26 10:02:17;;;;;;;1.85;1.10;;;;;;;18.63;33.03;98603.75;125907;1102;23022;-77
2021/05/26 10:04:51;;;;;;;6.83;3.70;;;;;;;18.64;33.46;98607.33;126169;1097;27153;-77
2021/05/26 10:07:40;;;;;;;3.68;0.65;;;;;;;18.77;33.92;98604.67;125911;1102;22761;-77
2021/05/26 10:10:11;;;;;;;3.45;0.70;;;;;;;18.89;34.77;98604.29;125788;1101;22914;-77
2021/05/26 10:12:51;;;;;;;2.18;0.80;;;;;;;18.83;35.48;98599.94;126094;1101;24384;-77
2021/05/26 10:15:22;;;;;;;2.18;0.65;;;;;;;18.66;34.93;98594.90;126053;1101;22777;-76
2021/05/26 10:18:04;;;;;;;5.40;0.63;;;;;;;18.47;34.53;98586.56;126078;1096;27186;-77
2021/05/26 10:20:38;;;;;;;2.13;0.53;;;;;;;18.57;35.15;98582.84;126123;1097;27199;-77
2021/05/26 10:23:08;;;;;;;1.70;0.50;;;;;;;18.63;35.05;98580.84;125851;1101;22946;-77
2021/05/26 10:25:43;;;;;;;2.50;0.40;;;;;;;18.70;34.94;98579.39;125855;1104;22885;-76
2021/05/26 10:28:32;;;;;;;2.93;0.60;;;;;;;18.78;33.50;98572.38;125832;1105;22812;-77
2021/05/26 10:31:01;;;;;;;;;;;;;;;18.91;33.70;98568.94;125860;1097;25986;-76
2021/05/26 10:33:48;;;;;;;0.60;0.40;;;;;;;18.91;32.51;98563.41;125818;1104;21490;-76
2021/05/26 10:36:16;;;;;;;2.85;0.50;;;;;;;18.92;33.41;98573.31;125780;1097;27293;-76
2021/05/26 10:39:01;;;;;;;4.55;0.50;;;;;;;18.99;33.93;98566.63;125777;1097;25986;-76
2021/05/26 10:41:50;;;;;;;4.33;0.40;;;;;;;19.15;33.45;98563.33;125755;1104;22767;-76
2021/05/26 10:44:18;;;;;;;1.15;0.50;;;;;;;19.31;34.42;98555.63;125747;1104;22812;-76
2021/05/26 10:46:48;;;;;;;2.18;0.60;;;;;;;19.45;33.18;98554.88;125829;1104;24585;-76
2021/05/26 10:49:16;;;;;;;2.18;0.40;;;;;;;19.44;33.05;98554.06;125814;1105;22744;-76
2021/05/26 10:51:57;;;;;;;2.20;0.55;;;;;;;19.40;31.27;98560.48;125814;1097;26213;-76
2021/05/26 10:54:51;;;;;;;2.25;0.70;;;;;;;19.38;32.47;98555.25;125816;1104;22743;-76
2021/05/26 10:57:19;;;;;;;1.55;0.40;;;;;;;19.39;32.63;98548.63;125732;1104;22752;-76
2021/05/26 11:00:25;;;;;;;2.65;0.60;;;;;;;19.57;33.23;98551.66;125765;1104;22775;-76
2021/05/26 11:03:30;;;;;;;4.10;0.60;;;;;;;19.72;32.03;98543.08;125785;1097;22916;-76
2021/05/26 11:06:13;;;;;;;1.27;0.50;;;;;;;19.83;32.05;98532.70;125830;1104;22746;-76
2021/05/26 11:08:45;;;;;;;2.95;0.95;;;;;;;19.87;32.30;98544.80;125916;1104;22886;-76
2021/05/26 11:11:22;;;;;;;2.03;0.60;;;;;;;19.96;32.51;98542.97;125969;1104;22747;-76
2021/05/26 11:14:14;;;;;;;1.77;0.50;;;;;;;19.99;32.59;98538.77;125874;1096;26245;-76
2021/05/26 11:16:52;;;;;;;1.70;0.68;;;;;;;20.07;33.11;98535.30;125839;1104;22748;-76
2021/05/26 11:19:33;;;;;;;2.65;0.60;;;;;;;20.23;33.62;98536.63;125797;1104;22806;-76
2021/05/26 11:22:14;;;;;;;2.00;0.68;;;;;;;20.27;32.44;98536.84;125764;1104;22770;-76
2021/05/26 11:24:56;;;;;;;2.00;0.70;;;;;;;20.29;31.74;98531.81;125820;1097;27152;-76
2021/05/26 11:27:26;;;;;;;2.75;0.50;;;;;;;20.32;31.39;98528.44;125748;1097;27232;-76
2021/05/26 11:30:04;;;;;;;3.20;0.70;;;;;;;20.47;30.54;98538.39;125829;1104;23012;-77
2021/05/26 11:32:32;;;;;;;2.23;0.80;;;;;;;20.51;29.06;98531.10;125811;1104;22767;-76
2021/05/26 11:35:14;;;;;;;2.70;0.88;;;;;;;20.50;30.00;98529.45;125811;1104;22768;-76
2021/05/26 11:37:42;;;;;;;1.95;0.60;;;;;;;20.44;29.42;98531.51;125809;1104;22741;-76
2021/05/26 11:40:28;;;;;;;1.17;0.50;;;;;;;20.33;29.17;98523.72;125790;1104;24408;-76
2021/05/26 11:42:58;;;;;;;3.13;0.70;;;;;;;20.23;29.17;98519.23;126049;1104;22911;-76
2021/05/26 11:45:26;;;;;;;2.75;0.70;;;;;;;20.21;28.14;98519.53;126136;1096;25766;-76
2021/05/26 11:47:56;;;;;;;1.18;0.55;;;;;;;20.34;28.99;98503.24;125923;1096;26217;-76
2021/05/26 11:50:39;;;;;;;1.00;0.60;;;;;;;20.38;29.42;98505.09;125890;1104;22825;-76
2021/05/26 11:53:13;;;;;;;1.48;0.45;;;;;;;20.44;28.34;98500.27;125896;1104;22768;-76
2021/05/26 11:55:44;;;;;;;2.43;0.63;;;;;;;20.52;29.32;98498.71;126131;1101;22820;-76